createdAt,value
2023-02-19T00:01:22.052Z,84.44
2023-02-19T00:03:54.110Z,84.76
2023-02-19T00:06:22.260Z,84.31
2023-02-19T00:08:49.322Z,84.41
2023-02-19T00:11:22.761Z,84.38
2023-02-19T00:13:53.822Z,84.53
2023-02-19T00:16:22.586Z,84.43
2023-02-19T00:18:50.125Z,84.40
2023-02-19T00:21:17.688Z,84.10
2023-02-19T00:23:55.847Z,83.22
2023-02-19T00:26:23.105Z,83.57
2023-02-19T00:28:51.541Z,83.29
2023-02-19T00:31:32.510Z,82.43
2023-02-19T00:34:04.922Z,82.66
2023-02-19T00:36:33.899Z,82.41
2023-02-19T00:39:00.987Z,82.26
2023-02-19T00:41:28.993Z,82.20
2023-02-19T00:44:00.485Z,82.10
2023-02-19T00:46:34.296Z,82.04
2023-02-19T00:49:01.585Z,82.21
2023-02-19T00:51:31.094Z,82.57
2023-02-19T00:53:58.228Z,82.40
2023-02-19T00:56:25.283Z,82.25
2023-02-19T00:58:52.535Z,82.49
2023-02-19T01:01:20.259Z,82.86
2023-02-19T01:03:47.637Z,82.97
2023-02-19T01:06:17.724Z,83.54
2023-02-19T01:08:45.170Z,84.23
2023-02-19T01:11:12.792Z,85.45
2023-02-19T01:13:41.088Z,86.35
2023-02-19T01:16:14.198Z,87.07
2023-02-19T01:18:41.622Z,87.76
2023-02-19T01:21:12.635Z,88.55
2023-02-19T01:23:40.223Z,89.00
2023-02-19T01:26:10.685Z,89.37
2023-02-19T01:28:37.847Z,89.67
2023-02-19T01:31:07.559Z,89.95
2023-02-19T01:33:35.091Z,90.07
2023-02-19T01:36:06.094Z,90.24
2023-02-19T01:38:33.413Z,89.85
2023-02-19T01:41:06.038Z,90.16
2023-02-19T01:43:34.047Z,89.99
2023-02-19T01:46:01.620Z,90.54
2023-02-19T01:48:37.849Z,90.36
2023-02-19T01:51:06.024Z,90.18
2023-02-19T01:53:37.056Z,90.38
2023-02-19T01:56:05.117Z,90.32
2023-02-19T01:58:34.407Z,90.33
2023-02-19T02:01:03.725Z,90.90
2023-02-19T02:03:30.976Z,90.63
2023-02-19T02:06:08.387Z,90.48
2023-02-19T02:08:53.854Z,90.21
2023-02-19T02:11:21.489Z,90.63
2023-02-19T02:13:48.942Z,90.40
2023-02-19T02:16:23.451Z,91.00
2023-02-19T02:19:09.849Z,90.71
2023-02-19T02:21:56.200Z,90.64
2023-02-19T02:25:14.655Z,90.51
2023-02-19T02:27:52.231Z,90.89
2023-02-19T02:30:30.162Z,90.75
2023-02-19T02:33:28.557Z,90.60
2023-02-19T02:36:09.107Z,90.49
2023-02-19T02:38:39.491Z,90.64
2023-02-19T02:41:06.826Z,90.75
2023-02-19T02:43:33.906Z,90.60
2023-02-19T02:46:01.141Z,90.83
2023-02-19T02:48:41.890Z,90.50
2023-02-19T02:51:31.106Z,90.74
2023-02-19T02:54:21.760Z,90.13
2023-02-19T02:56:49.421Z,90.29
2023-02-19T02:59:19.082Z,90.16
2023-02-19T03:02:11.785Z,90.12
2023-02-19T03:05:24.605Z,89.84
2023-02-19T03:08:06.008Z,89.69
2023-02-19T03:10:36.755Z,90.38
2023-02-19T03:13:27.618Z,89.62
2023-02-19T03:16:21.712Z,89.75
2023-02-19T03:19:11.506Z,89.30
2023-02-19T03:21:40.317Z,89.83
2023-02-19T03:24:27.421Z,89.56
2023-02-19T03:27:02.430Z,89.68
2023-02-19T03:29:32.160Z,89.12
2023-02-19T03:32:04.725Z,89.11
2023-02-19T03:34:35.593Z,88.71
2023-02-19T03:37:31.780Z,89.16
2023-02-19T03:39:58.896Z,88.45
2023-02-19T03:42:56.262Z,87.79
2023-02-19T03:45:33.556Z,88.67
2023-02-19T03:48:18.638Z,87.39
2023-02-19T03:51:19.406Z,87.69
2023-02-19T03:54:09.141Z,86.97
2023-02-19T03:56:40.620Z,86.95
2023-02-19T03:59:20.200Z,86.57
2023-02-19T04:01:54.895Z,86.75
2023-02-19T04:04:32.404Z,86.37
2023-02-19T04:06:59.482Z,86.30
2023-02-19T04:09:30.294Z,86.07
2023-02-19T04:11:58.869Z,86.15
2023-02-19T04:15:00.751Z,86.22
2023-02-19T04:17:33.829Z,85.94
2023-02-19T04:20:04.349Z,85.78
2023-02-19T04:22:31.524Z,85.48
2023-02-19T04:24:58.717Z,86.16
2023-02-19T04:27:25.756Z,87.14
2023-02-19T04:29:52.799Z,87.04
2023-02-19T04:32:19.893Z,87.55
2023-02-19T04:34:46.981Z,87.31
2023-02-19T04:37:14.072Z,87.20
2023-02-19T04:39:41.094Z,86.76
2023-02-19T04:42:08.144Z,87.14
2023-02-19T04:44:35.319Z,87.41
2023-02-19T04:47:02.352Z,87.68
2023-02-19T04:49:29.423Z,87.41
2023-02-19T04:51:56.476Z,87.25
2023-02-19T04:54:23.656Z,87.07
2023-02-19T04:56:50.788Z,87.03
2023-02-19T04:59:17.874Z,87.44
2023-02-19T05:01:44.976Z,87.87
2023-02-19T05:04:12.034Z,88.03
2023-02-19T05:06:39.089Z,88.08
2023-02-19T05:09:06.226Z,87.79
2023-02-19T05:11:33.251Z,87.59
2023-02-19T05:14:00.653Z,87.29
2023-02-19T05:16:27.919Z,86.79
2023-02-19T05:18:54.969Z,86.66
2023-02-19T05:21:22.216Z,86.24
2023-02-19T05:23:49.295Z,86.03
2023-02-19T05:26:19.200Z,86.08
2023-02-19T05:28:48.116Z,86.24
2023-02-19T05:31:15.732Z,87.14
2023-02-19T05:33:44.106Z,86.97
2023-02-19T05:36:13.247Z,88.21
2023-02-19T05:38:41.462Z,88.42
2023-02-19T05:41:13.279Z,88.52
2023-02-19T05:43:42.022Z,89.01
2023-02-19T05:46:12.153Z,89.80
2023-02-19T05:48:39.204Z,90.08
2023-02-19T05:51:12.066Z,90.62
2023-02-19T05:53:40.008Z,90.68
2023-02-19T05:56:35.139Z,89.91
2023-02-19T05:59:06.539Z,90.13
2023-02-19T06:01:34.357Z,90.49
2023-02-19T06:04:01.419Z,90.75
2023-02-19T06:06:28.769Z,90.39
2023-02-19T06:08:55.845Z,90.93
2023-02-19T06:11:23.253Z,90.87
2023-02-19T06:13:50.518Z,90.81
2023-02-19T06:16:18.427Z,91.06
2023-02-19T06:18:45.943Z,91.12
2023-02-19T06:21:13.697Z,91.94
2023-02-19T06:23:41.065Z,91.76
2023-02-19T06:26:17.814Z,92.01
2023-02-19T06:28:45.803Z,92.12
2023-02-19T06:31:14.001Z,90.80
2023-02-19T06:33:41.411Z,90.73
2023-02-19T06:36:12.993Z,90.69
2023-02-19T06:38:40.025Z,91.44
2023-02-19T06:41:08.672Z,92.38
2023-02-19T06:43:36.015Z,92.05
2023-02-19T06:46:05.147Z,92.58
2023-02-19T06:48:32.813Z,92.27
2023-02-19T06:51:00.564Z,91.85
2023-02-19T06:53:27.686Z,91.78
2023-02-19T06:56:04.295Z,92.04
2023-02-19T06:58:31.794Z,92.59
2023-02-19T07:00:58.901Z,92.84
2023-02-19T07:03:28.727Z,92.60
2023-02-19T07:05:55.731Z,92.95
2023-02-19T07:08:22.815Z,92.58
2023-02-19T07:10:58.335Z,92.34
2023-02-19T07:13:26.814Z,92.95
2023-02-19T07:16:03.285Z,92.85
2023-02-19T07:18:31.293Z,92.62
2023-02-19T07:21:11.745Z,92.55
2023-02-19T07:23:39.126Z,92.87
2023-02-19T07:26:09.690Z,93.28
2023-02-19T07:28:36.947Z,93.29
2023-02-19T07:31:04.776Z,93.33
2023-02-19T07:33:31.812Z,93.40
2023-02-19T07:35:59.248Z,93.77
2023-02-19T07:38:26.788Z,93.92
2023-02-19T07:40:58.970Z,94.02
2023-02-19T07:43:28.789Z,94.00
2023-02-19T07:45:55.902Z,93.73
2023-02-19T07:48:23.314Z,93.81
2023-02-19T07:50:54.617Z,93.97
2023-02-19T07:53:22.395Z,93.76
2023-02-19T07:55:49.967Z,93.63
2023-02-19T07:58:17.501Z,93.04
2023-02-19T08:00:44.583Z,92.84
2023-02-19T08:03:12.077Z,93.10
2023-02-19T08:05:41.115Z,93.40
2023-02-19T08:08:09.681Z,93.39
2023-02-19T08:10:55.621Z,93.55
2023-02-19T08:13:22.991Z,93.58
2023-02-19T08:16:16.087Z,93.26
2023-02-19T08:18:46.878Z,93.56
2023-02-19T08:21:14.643Z,93.37
2023-02-19T08:23:43.095Z,93.44
2023-02-19T08:26:10.169Z,93.59
2023-02-19T08:28:37.226Z,93.72
2023-02-19T08:31:06.736Z,93.83
2023-02-19T08:33:34.222Z,93.13
2023-02-19T08:36:05.187Z,94.05
2023-02-19T08:38:35.758Z,93.56
2023-02-19T08:41:12.074Z,94.03
2023-02-19T08:43:42.639Z,94.01
2023-02-19T08:46:10.580Z,93.90
2023-02-19T08:48:38.930Z,94.05
2023-02-19T08:51:09.375Z,93.98
2023-02-19T08:53:37.918Z,93.87
2023-02-19T08:56:09.637Z,94.49
2023-02-19T08:58:37.454Z,94.21
2023-02-19T09:01:16.337Z,92.49
2023-02-19T09:03:43.664Z,91.22
2023-02-19T09:06:18.141Z,92.34
2023-02-19T09:08:45.209Z,91.71
2023-02-19T09:11:12.680Z,91.84
2023-02-19T09:13:40.614Z,92.49
2023-02-19T09:16:08.019Z,93.24
2023-02-19T09:18:35.683Z,92.91
2023-02-19T09:21:04.674Z,93.06
2023-02-19T09:23:36.086Z,93.51
2023-02-19T09:26:06.874Z,93.21
2023-02-19T09:28:34.071Z,92.76
2023-02-19T09:31:09.798Z,93.27
2023-02-19T09:33:37.266Z,93.54
2023-02-19T09:36:04.463Z,93.34
2023-02-19T09:38:31.526Z,92.88
2023-02-19T09:40:59.923Z,92.99
2023-02-19T09:43:29.134Z,93.00
2023-02-19T09:46:05.023Z,92.72
2023-02-19T09:48:32.305Z,93.04
2023-02-19T09:50:59.764Z,93.79
2023-02-19T09:53:30.183Z,92.68
2023-02-19T09:55:57.360Z,93.24
2023-02-19T09:58:32.045Z,93.19
2023-02-19T10:01:01.764Z,92.77
2023-02-19T10:03:35.653Z,92.88
2023-02-19T10:06:11.181Z,92.20
2023-02-19T10:08:40.125Z,92.85
2023-02-19T10:11:07.582Z,92.49
2023-02-19T10:14:01.558Z,92.66
2023-02-19T10:16:29.171Z,92.82
2023-02-19T10:18:56.636Z,93.47
2023-02-19T10:21:25.634Z,93.67
2023-02-19T10:23:58.938Z,93.59
2023-02-19T10:26:26.245Z,93.08
2023-02-19T10:28:55.382Z,93.13
2023-02-19T10:31:24.822Z,93.52
2023-02-19T10:34:01.075Z,93.85
2023-02-19T10:36:39.169Z,93.43
2023-02-19T10:39:26.308Z,93.26
2023-02-19T10:41:56.428Z,92.93
2023-02-19T10:44:27.281Z,93.21
2023-02-19T10:46:56.808Z,93.82
2023-02-19T10:49:35.473Z,93.55
2023-02-19T10:52:20.084Z,93.47
2023-02-19T10:54:52.556Z,93.16
2023-02-19T10:57:19.596Z,93.41
2023-02-19T10:59:57.526Z,93.88
2023-02-19T11:02:26.347Z,94.08
2023-02-19T11:05:07.333Z,94.50
2023-02-19T11:07:36.111Z,94.25
2023-02-19T11:10:04.478Z,94.43
2023-02-19T11:12:36.032Z,94.44
2023-02-19T11:15:24.546Z,94.51
2023-02-19T11:18:03.864Z,93.91
2023-02-19T11:20:31.880Z,94.23
2023-02-19T11:23:02.063Z,92.94
2023-02-19T11:25:31.062Z,93.35
2023-02-19T11:28:06.901Z,92.56
2023-02-19T11:30:39.689Z,93.26
2023-02-19T11:33:33.100Z,93.31
2023-02-19T11:36:15.201Z,93.10
2023-02-19T11:38:42.749Z,93.41
2023-02-19T11:41:26.361Z,93.28
2023-02-19T11:44:14.513Z,91.90
2023-02-19T11:47:13.360Z,92.11
2023-02-19T11:49:43.665Z,92.11
2023-02-19T11:52:26.954Z,92.46
2023-02-19T11:54:59.040Z,91.54
2023-02-19T11:57:38.497Z,91.20
2023-02-19T12:00:27.569Z,91.49
2023-02-19T12:03:24.498Z,92.16
2023-02-19T12:06:14.530Z,91.25
2023-02-19T12:09:07.426Z,91.62
2023-02-19T12:11:53.600Z,92.26
2023-02-19T12:14:57.350Z,91.76
2023-02-19T12:17:40.286Z,91.63
2023-02-19T12:20:14.099Z,91.76
2023-02-19T12:23:25.656Z,90.70
2023-02-19T12:26:01.366Z,89.17
2023-02-19T12:28:58.435Z,89.91
2023-02-19T12:31:38.633Z,89.72
2023-02-19T12:34:24.350Z,90.21
2023-02-19T12:37:19.849Z,89.75
2023-02-19T12:39:52.876Z,90.14
2023-02-19T12:42:43.512Z,90.35
2023-02-19T12:45:21.228Z,89.12
2023-02-19T12:48:12.629Z,89.58
2023-02-19T12:50:40.949Z,90.12
2023-02-19T12:53:30.951Z,89.35
2023-02-19T12:55:59.693Z,89.13
2023-02-19T12:58:32.327Z,89.20
2023-02-19T13:00:59.816Z,90.42
2023-02-19T13:03:38.034Z,89.83
2023-02-19T13:06:27.343Z,90.32
2023-02-19T13:09:06.316Z,89.69
2023-02-19T13:11:44.307Z,88.93
2023-02-19T13:14:14.075Z,89.00
2023-02-19T13:16:47.146Z,88.39
2023-02-19T13:19:15.288Z,87.61
2023-02-19T13:22:03.337Z,87.80
2023-02-19T13:24:36.523Z,87.11
2023-02-19T13:27:32.505Z,87.74
2023-02-19T13:30:13.684Z,87.56
2023-02-19T13:32:57.802Z,87.57
2023-02-19T13:35:52.961Z,87.68
2023-02-19T13:38:21.088Z,86.66
2023-02-19T13:40:56.121Z,87.64
2023-02-19T13:43:25.554Z,87.62
2023-02-19T13:46:00.964Z,88.24
2023-02-19T13:48:34.627Z,87.81
2023-02-19T13:51:17.161Z,88.06
2023-02-19T13:53:59.184Z,87.78
2023-02-19T13:56:33.870Z,87.52
2023-02-19T13:59:25.795Z,87.77
2023-02-19T14:01:55.677Z,86.01
2023-02-19T14:04:42.575Z,86.09
2023-02-19T14:07:09.573Z,86.86
2023-02-19T14:09:36.754Z,85.45
2023-02-19T14:12:07.952Z,85.58
2023-02-19T14:14:39.580Z,84.69
2023-02-19T14:17:09.622Z,85.67
2023-02-19T14:19:43.002Z,86.25
2023-02-19T14:22:55.457Z,85.54
2023-02-19T14:25:29.668Z,85.47
2023-02-19T14:28:19.461Z,85.98
2023-02-19T14:30:54.660Z,84.63
2023-02-19T14:33:24.794Z,84.70
2023-02-19T14:36:36.849Z,84.36
2023-02-19T14:39:07.804Z,85.16
2023-02-19T14:41:40.508Z,85.15
2023-02-19T14:44:14.788Z,85.43
2023-02-19T14:46:53.535Z,85.08
2023-02-19T14:49:38.578Z,85.83
2023-02-19T14:52:10.637Z,84.68
2023-02-19T14:54:44.176Z,85.24
2023-02-19T14:57:18.331Z,84.72
2023-02-19T14:59:54.307Z,84.05
2023-02-19T15:02:21.643Z,83.70
2023-02-19T15:04:48.686Z,83.71
2023-02-19T15:07:30.597Z,83.86
2023-02-19T15:10:05.065Z,84.57
2023-02-19T15:12:51.902Z,83.91
2023-02-19T15:15:22.811Z,83.74
2023-02-19T15:17:51.254Z,83.61
2023-02-19T15:20:20.664Z,84.12
2023-02-19T15:22:47.755Z,82.96
2023-02-19T15:25:20.028Z,82.77
2023-02-19T15:27:47.689Z,82.97
2023-02-19T15:30:28.622Z,82.28
2023-02-19T15:32:59.754Z,82.57
2023-02-19T15:35:28.183Z,81.96
2023-02-19T15:37:55.702Z,82.41
2023-02-19T15:40:29.348Z,82.76
2023-02-19T15:42:57.250Z,82.63
2023-02-19T15:45:31.550Z,82.43
2023-02-19T15:48:03.918Z,82.78
2023-02-19T15:50:33.921Z,84.08
2023-02-19T15:53:04.044Z,83.82
2023-02-19T15:55:36.156Z,83.90
2023-02-19T15:58:23.787Z,83.18
2023-02-19T16:01:06.355Z,83.37
2023-02-19T16:03:33.582Z,83.93
2023-02-19T16:06:10.411Z,83.95
2023-02-19T16:08:39.564Z,83.78
2023-02-19T16:11:27.750Z,84.52
2023-02-19T16:14:22.571Z,83.97
2023-02-19T16:16:53.580Z,83.92
2023-02-19T16:19:27.010Z,83.32
2023-02-19T16:21:55.652Z,83.53
2023-02-19T16:24:35.626Z,84.68
2023-02-19T16:27:03.160Z,84.22
2023-02-19T16:29:32.639Z,84.28
2023-02-19T16:32:02.026Z,84.55
2023-02-19T16:34:43.488Z,83.77
2023-02-19T16:37:36.590Z,84.53
2023-02-19T16:40:11.053Z,83.82
2023-02-19T16:43:23.722Z,84.23
2023-02-19T16:45:52.534Z,83.68
2023-02-19T16:48:21.257Z,83.55
2023-02-19T16:50:48.366Z,83.42
2023-02-19T16:53:25.216Z,83.87
2023-02-19T16:55:52.385Z,82.97
2023-02-19T16:58:19.492Z,83.35
2023-02-19T17:00:46.868Z,84.10
2023-02-19T17:03:16.297Z,84.01
2023-02-19T17:05:44.018Z,83.89
2023-02-19T17:08:34.111Z,83.43
2023-02-19T17:11:02.577Z,83.50
2023-02-19T17:13:29.852Z,83.55
2023-02-19T17:15:57.716Z,83.51
2023-02-19T17:18:24.924Z,83.21
2023-02-19T17:21:15.061Z,83.65
2023-02-19T17:23:42.311Z,83.55
2023-02-19T17:26:21.098Z,84.06
2023-02-19T17:28:48.579Z,84.14
2023-02-19T17:31:15.869Z,83.97
2023-02-19T17:33:43.362Z,84.00
2023-02-19T17:36:32.717Z,83.64
2023-02-19T17:39:00.868Z,83.40
2023-02-19T17:41:28.134Z,84.10
2023-02-19T17:43:55.274Z,83.53
2023-02-19T17:46:26.622Z,83.02
2023-02-19T17:48:54.420Z,83.66
2023-02-19T17:51:22.192Z,83.01
2023-02-19T17:53:50.015Z,83.79
2023-02-19T17:56:18.645Z,84.23
2023-02-19T17:58:45.922Z,83.44
2023-02-19T18:01:13.552Z,83.21
2023-02-19T18:03:41.715Z,82.89
2023-02-19T18:06:08.893Z,84.19
2023-02-19T18:08:35.964Z,84.37
2023-02-19T18:11:03.256Z,83.91
2023-02-19T18:13:30.297Z,83.97
2023-02-19T18:15:57.705Z,83.96
2023-02-19T18:18:24.738Z,83.48
2023-02-19T18:20:52.099Z,83.93
2023-02-19T18:23:20.640Z,84.23
2023-02-19T18:25:47.775Z,84.26
2023-02-19T18:28:15.130Z,84.15
2023-02-19T18:30:42.239Z,84.00
2023-02-19T18:33:10.866Z,83.75
2023-02-19T18:35:38.505Z,84.00
2023-02-19T18:38:05.942Z,84.14
2023-02-19T18:40:33.017Z,84.72
2023-02-19T18:43:00.318Z,84.60
2023-02-19T18:45:29.501Z,85.05
2023-02-19T18:47:56.611Z,85.71
2023-02-19T18:50:23.676Z,85.37
2023-02-19T18:52:51.622Z,85.66
2023-02-19T18:55:19.158Z,85.14
2023-02-19T18:57:48.857Z,85.29
2023-02-19T19:00:21.401Z,85.47
2023-02-19T19:02:51.100Z,85.48
2023-02-19T19:05:22.626Z,85.44
2023-02-19T19:07:51.392Z,85.87
2023-02-19T19:10:19.049Z,86.07
2023-02-19T19:12:46.923Z,85.97
2023-02-19T19:15:17.995Z,86.13
2023-02-19T19:17:46.263Z,86.28
2023-02-19T19:20:14.643Z,85.83
2023-02-19T19:22:41.726Z,86.35
2023-02-19T19:25:09.343Z,86.71
2023-02-19T19:27:36.580Z,86.79
2023-02-19T19:30:05.008Z,86.92
2023-02-19T19:32:32.976Z,86.51
2023-02-19T19:35:00.055Z,87.17
2023-02-19T19:37:29.110Z,86.60
2023-02-19T19:39:57.331Z,86.69
2023-02-19T19:42:24.602Z,86.58
2023-02-19T19:44:51.680Z,86.85
2023-02-19T19:47:19.018Z,87.12
2023-02-19T19:49:47.249Z,86.86
2023-02-19T19:52:15.146Z,86.92
2023-02-19T19:54:43.160Z,87.01
2023-02-19T19:57:10.768Z,87.25
2023-02-19T19:59:39.383Z,87.02
2023-02-19T20:02:08.472Z,87.89
2023-02-19T20:04:35.501Z,87.27
2023-02-19T20:07:02.624Z,87.18
2023-02-19T20:09:29.780Z,86.91
2023-02-19T20:11:57.024Z,88.03
2023-02-19T20:14:25.275Z,87.70
2023-02-19T20:16:53.432Z,87.47
2023-02-19T20:19:20.725Z,87.73
2023-02-19T20:21:49.828Z,88.00
2023-02-19T20:24:24.006Z,87.45
2023-02-19T20:26:53.779Z,87.76
2023-02-19T20:29:20.895Z,87.23
2023-02-19T20:31:49.554Z,86.88
2023-02-19T20:34:16.938Z,87.35
2023-02-19T20:36:45.384Z,87.79
2023-02-19T20:39:12.987Z,87.72
2023-02-19T20:41:40.087Z,88.76
2023-02-19T20:44:07.161Z,88.11
2023-02-19T20:46:40.968Z,88.53
2023-02-19T20:49:08.010Z,88.30
2023-02-19T20:51:46.020Z,88.60
2023-02-19T20:54:14.480Z,88.49
2023-02-19T20:56:45.463Z,88.64
2023-02-19T20:59:13.515Z,88.99
2023-02-19T21:01:40.740Z,89.13
2023-02-19T21:04:07.861Z,88.98
2023-02-19T21:06:36.264Z,88.48
2023-02-19T21:09:04.185Z,88.96
2023-02-19T21:11:32.048Z,88.68
2023-02-19T21:13:59.393Z,88.97
2023-02-19T21:16:27.925Z,89.27
2023-02-19T21:18:55.339Z,89.32
2023-02-19T21:21:25.285Z,88.99
2023-02-19T21:23:56.341Z,89.56
2023-02-19T21:26:23.702Z,89.48
2023-02-19T21:28:53.924Z,89.52
2023-02-19T21:31:22.796Z,89.85
2023-02-19T21:33:52.839Z,89.56
2023-02-19T21:36:20.732Z,88.97
2023-02-19T21:38:47.776Z,89.42
2023-02-19T21:41:14.825Z,89.24
2023-02-19T21:43:41.942Z,90.08
2023-02-19T21:46:08.977Z,89.48
2023-02-19T21:48:36.074Z,89.51
2023-02-19T21:51:03.829Z,89.79
2023-02-19T21:53:30.850Z,90.48
2023-02-19T21:55:59.446Z,90.28
2023-02-19T21:58:26.590Z,90.41
2023-02-19T22:00:54.178Z,90.64
2023-02-19T22:03:21.392Z,90.18
2023-02-19T22:05:48.449Z,90.29
2023-02-19T22:08:17.396Z,90.17
2023-02-19T22:10:44.671Z,90.87
2023-02-19T22:13:11.752Z,90.52
2023-02-19T22:15:38.816Z,90.82
2023-02-19T22:18:05.963Z,90.43
2023-02-19T22:20:34.670Z,90.94
2023-02-19T22:23:02.023Z,91.09
2023-02-19T22:25:29.064Z,91.25
2023-02-19T22:27:56.119Z,91.02
2023-02-19T22:30:23.979Z,90.83
2023-02-19T22:32:51.094Z,90.91
2023-02-19T22:35:18.163Z,90.72
2023-02-19T22:37:45.423Z,90.81
2023-02-19T22:40:12.635Z,90.81
2023-02-19T22:42:39.736Z,91.20
2023-02-19T22:45:07.190Z,91.10
2023-02-19T22:47:34.295Z,91.21
2023-02-19T22:50:01.363Z,91.07
2023-02-19T22:52:28.715Z,91.23
2023-02-19T22:54:56.056Z,91.14
2023-02-19T22:57:23.124Z,90.67
2023-02-19T22:59:50.375Z,91.11
2023-02-19T23:02:18.167Z,91.14
2023-02-19T23:04:45.262Z,91.19
2023-02-19T23:07:12.333Z,90.93
2023-02-19T23:09:39.422Z,91.19
2023-02-19T23:12:09.552Z,91.23
2023-02-19T23:14:36.983Z,91.70
2023-02-19T23:17:04.426Z,91.26
2023-02-19T23:19:31.948Z,91.36
2023-02-19T23:21:59.233Z,91.44
2023-02-19T23:24:26.306Z,91.48
2023-02-19T23:26:54.058Z,91.35
2023-02-19T23:29:25.183Z,91.28
2023-02-19T23:31:53.094Z,91.47
2023-02-19T23:34:20.451Z,91.82
2023-02-19T23:36:49.351Z,91.35
2023-02-19T23:39:19.332Z,91.60
2023-02-19T23:41:51.014Z,91.85
2023-02-19T23:44:18.964Z,92.32
2023-02-19T23:46:45.996Z,92.39
2023-02-19T23:49:13.158Z,92.98
2023-02-19T23:51:40.268Z,93.46
2023-02-19T23:54:07.485Z,93.25
2023-02-19T23:56:34.900Z,93.70
2023-02-19T23:59:02.012Z,93.75
